Time;durP1;ratioP1;P1;durP2;ratioP2;P2;SDS_P1;SDS_P2;PMS_P1;PMS_P2;Temp;Humidity;BMP_temperature;BMP_pressure;BME280_temperature;BME280_humidity;BME280_pressure;Samples;Min_cycle;Max_cycle;Signal;HPM_P1;HPM_P2
2022/06/11 00:00:42;;;;;;;11.80;10.60;;;;;;;;;;10275744;28;20056;-62
2022/06/11 00:05:41;;;;;;;13.73;11.25;;;;;;;;;;10275452;28;20123;-63
2022/06/11 00:10:40;;;;;;;12.38;10.55;;;;;;;;;;10274156;28;20049;-62
2022/06/11 00:15:39;;;;;;;13.98;11.45;;;;;;;;;;10274593;28;20068;-61
2022/06/11 00:20:37;;;;;;;11.63;10.48;;;;;;;;;;10275094;28;20073;-61
2022/06/11 00:25:37;;;;;;;12.20;11.00;;;;;;;;;;10275519;28;20053;-61
2022/06/11 00:30:36;;;;;;;11.75;10.55;;;;;;;;;;10275461;28;20465;-62
2022/06/11 00:35:35;;;;;;;11.95;10.88;;;;;;;;;;10274577;28;20073;-60
2022/06/11 00:40:34;;;;;;;12.73;11.50;;;;;;;;;;10274759;28;20076;-62
2022/06/11 00:45:35;;;;;;;12.63;11.43;;;;;;;;;;10274426;28;20540;-62
2022/06/11 00:50:37;;;;;;;11.13;10.13;;;;;;;;;;10278109;28;20076;-62
2022/06/11 00:55:37;;;;;;;10.70;9.68;;;;;;;;;;10282536;28;20084;-61
2022/06/11 01:00:38;;;;;;;11.38;10.38;;;;;;;;;;10281751;28;20418;-62
2022/06/11 01:05:38;;;;;;;11.43;10.30;;;;;;;;;;10281673;28;20405;-60
2022/06/11 01:10:54;;;;;;;10.75;9.65;;;;;;;;;;10282033;28;20077;-62
2022/06/11 01:15:55;;;;;;;11.45;10.25;;;;;;;;;;10281756;28;20137;-62
2022/06/11 01:20:56;;;;;;;11.15;10.18;;;;;;;;;;10280686;28;20057;-61
2022/06/11 01:26:07;;;;;;;10.00;9.20;;;;;;;;;;10280998;28;20048;-62
2022/06/11 01:31:10;;;;;;;10.35;9.25;;;;;;;;;;10279695;28;20041;-62
2022/06/11 01:36:10;;;;;;;10.57;9.57;;;;;;;;;;10279976;28;20056;-62
2022/06/11 01:41:25;;;;;;;10.52;9.50;;;;;;;;;;10280944;28;20049;-62
2022/06/11 01:46:27;;;;;;;10.73;9.68;;;;;;;;;;10280120;28;20060;-62
2022/06/11 01:51:31;;;;;;;11.50;9.63;;;;;;;;;;10280077;28;20114;-62
2022/06/11 01:56:40;;;;;;;11.70;9.57;;;;;;;;;;10279506;28;20462;-62
2022/06/11 02:01:45;;;;;;;10.40;9.40;;;;;;;;;;10278315;28;20056;-62
2022/06/11 02:06:47;;;;;;;12.02;10.23;;;;;;;;;;10279562;28;20075;-62
2022/06/11 02:11:48;;;;;;;12.20;9.65;;;;;;;;;;10279457;28;20037;-62
2022/06/11 02:16:51;;;;;;;10.63;9.60;;;;;;;;;;10278968;28;20103;-62
2022/06/11 02:21:52;;;;;;;10.13;9.23;;;;;;;;;;10278513;28;20083;-62
2022/06/11 02:26:52;;;;;;;11.27;10.18;;;;;;;;;;10278540;28;20087;-62
2022/06/11 02:31:53;;;;;;;11.30;10.13;;;;;;;;;;10278072;28;20041;-62
2022/06/11 02:36:55;;;;;;;11.10;9.32;;;;;;;;;;10278757;28;20049;-61
2022/06/11 02:41:53;;;;;;;12.25;10.23;;;;;;;;;;10300324;28;20454;-62
2022/06/11 02:46:54;;;;;;;14.15;9.88;;;;;;;;;;10277816;28;20414;-61
2022/06/11 02:51:54;;;;;;;14.57;10.63;;;;;;;;;;10278101;28;20045;-62
2022/06/11 02:56:54;;;;;;;10.20;9.20;;;;;;;;;;10277626;28;20103;-62
2022/06/11 03:01:54;;;;;;;13.52;10.38;;;;;;;;;;10276792;28;20052;-62
2022/06/11 03:06:53;;;;;;;11.60;10.45;;;;;;;;;;10277233;28;20044;-61
2022/06/11 03:11:51;;;;;;;12.60;10.75;;;;;;;;;;10276911;28;20053;-62
2022/06/11 03:16:50;;;;;;;15.77;10.20;;;;;;;;;;10276670;28;20084;-61
2022/06/11 03:21:51;;;;;;;18.95;10.43;;;;;;;;;;10276152;28;20072;-62
2022/06/11 03:26:49;;;;;;;10.35;8.98;;;;;;;;;;10276714;28;20041;-62
2022/06/11 03:31:48;;;;;;;12.65;10.90;;;;;;;;;;10276390;28;20048;-62
2022/06/11 03:36:47;;;;;;;16.30;10.85;;;;;;;;;;10289723;28;20077;-61
2022/06/11 03:41:48;;;;;;;11.90;10.73;;;;;;;;;;10276074;28;20075;-61
2022/06/11 03:46:46;;;;;;;11.88;9.80;;;;;;;;;;10275921;28;20458;-62
2022/06/11 03:51:45;;;;;;;12.13;10.25;;;;;;;;;;10276365;28;20052;-63
2022/06/11 03:56:44;;;;;;;10.48;9.32;;;;;;;;;;10275995;28;20080;-62
2022/06/11 04:01:44;;;;;;;12.00;9.48;;;;;;;;;;10275607;28;20049;-62
2022/06/11 04:06:44;;;;;;;13.27;10.68;;;;;;;;;;10277744;28;20041;-62
2022/06/11 04:11:42;;;;;;;14.10;11.75;;;;;;;;;;10286530;28;20048;-63
2022/06/11 04:16:42;;;;;;;17.52;12.20;;;;;;;;;;10275336;28;20552;-62
2022/06/11 04:21:42;;;;;;;13.07;11.35;;;;;;;;;;10274851;28;20064;-63
2022/06/11 04:26:43;;;;;;;15.18;13.63;;;;;;;;;;10281059;28;20045;-62
2022/06/11 04:31:41;;;;;;;13.57;12.38;;;;;;;;;;10282588;28;20056;-63
2022/06/11 04:36:42;;;;;;;16.38;12.50;;;;;;;;;;10283017;28;20076;-62
2022/06/11 04:41:41;;;;;;;13.70;12.35;;;;;;;;;;10282863;28;20108;-62
2022/06/11 04:46:39;;;;;;;16.55;13.82;;;;;;;;;;10279970;28;20060;-62
2022/06/11 04:51:38;;;;;;;13.50;12.38;;;;;;;;;;10282458;28;20076;-63
2022/06/11 04:56:40;;;;;;;14.85;12.45;;;;;;;;;;10282437;28;20076;-62
2022/06/11 05:01:38;;;;;;;14.65;13.10;;;;;;;;;;10280801;28;20103;-63
2022/06/11 05:06:39;;;;;;;15.25;13.77;;;;;;;;;;10282148;28;20072;-63
2022/06/11 05:11:39;;;;;;;13.98;12.60;;;;;;;;;;10281914;28;20065;-63
2022/06/11 05:16:39;;;;;;;14.80;12.77;;;;;;;;;;10280695;28;20099;-62
2022/06/11 05:21:37;;;;;;;17.30;15.50;;;;;;;;;;10280676;28;20045;-63
2022/06/11 05:26:38;;;;;;;15.10;13.63;;;;;;;;;;10281007;28;20091;-62
2022/06/11 05:31:38;;;;;;;15.02;13.52;;;;;;;;;;10279733;28;20083;-62
2022/06/11 05:36:36;;;;;;;15.55;12.60;;;;;;;;;;10279149;28;20091;-62
2022/06/11 05:41:35;;;;;;;15.57;13.68;;;;;;;;;;10280905;28;20049;-62
2022/06/11 05:46:34;;;;;;;17.67;15.77;;;;;;;;;;10280427;28;20075;-62
2022/06/11 05:51:36;;;;;;;14.88;13.35;;;;;;;;;;10280432;28;20068;-62
2022/06/11 05:56:34;;;;;;;16.10;13.75;;;;;;;;;;10279409;28;20068;-62
2022/06/11 06:01:34;;;;;;;13.48;12.23;;;;;;;;;;10278993;28;20041;-63
2022/06/11 06:06:34;;;;;;;15.10;13.75;;;;;;;;;;10284414;28;20080;-63
2022/06/11 06:11:32;;;;;;;13.70;12.30;;;;;;;;;;10308539;28;20075;-63
2022/06/11 06:16:31;;;;;;;14.55;13.10;;;;;;;;;;10317441;28;20075;-63
2022/06/11 06:21:31;;;;;;;14.93;13.55;;;;;;;;;;10314947;28;20091;-63
2022/06/11 06:26:31;;;;;;;15.23;13.93;;;;;;;;;;10314904;28;20068;-62
2022/06/11 06:31:29;;;;;;;14.05;12.85;;;;;;;;;;10316306;28;20451;-62
2022/06/11 06:36:28;;;;;;;13.43;12.32;;;;;;;;;;10317933;28;20052;-62
2022/06/11 06:41:27;;;;;;;15.55;14.13;;;;;;;;;;10318814;28;20048;-62
2022/06/11 06:46:26;;;;;;;15.43;13.73;;;;;;;;;;10313653;28;20075;-62
2022/06/11 06:51:25;;;;;;;15.30;13.73;;;;;;;;;;10306381;28;20071;-62
2022/06/11 06:56:29;;;;;;;17.77;15.90;;;;;;;;;;10294499;28;20458;-62
2022/06/11 07:01:27;;;;;;;;;;;;;;;;;;10278152;28;20068;-62
2022/06/11 07:06:27;;;;;;;12.02;11.02;;;;;;;;;;10273451;28;19959;-63
2022/06/11 07:11:25;;;;;;;17.65;16.08;;;;;;;;;;10272983;28;20514;-62
2022/06/11 07:16:28;;;;;;;15.57;14.18;;;;;;;;;;10275166;28;20072;-62
2022/06/11 07:21:29;;;;;;;12.50;11.30;;;;;;;;;;10275884;28;20061;-63
2022/06/11 07:26:29;;;;;;;14.55;13.30;;;;;;;;;;10276840;28;20061;-62
2022/06/11 07:31:29;;;;;;;11.98;10.98;;;;;;;;;;10276199;28;20135;-62
2022/06/11 07:36:30;;;;;;;13.63;12.32;;;;;;;;;;10276034;28;20514;-63
2022/06/11 07:41:28;;;;;;;15.65;14.05;;;;;;;;;;10275856;28;20053;-61
2022/06/11 07:46:27;;;;;;;14.02;12.73;;;;;;;;;;10275274;28;20522;-62
2022/06/11 07:51:25;;;;;;;23.88;21.35;;;;;;;;;;10274829;28;20048;-61
2022/06/11 07:56:25;;;;;;;13.18;11.98;;;;;;;;;;10275588;28;20084;-63
2022/06/11 08:01:23;;;;;;;15.65;14.05;;;;;;;;;;10274748;28;20541;-63
2022/06/11 08:06:22;;;;;;;17.75;16.05;;;;;;;;;;10275446;28;20493;-63
2022/06/11 08:11:20;;;;;;;18.17;16.20;;;;;;;;;;10275092;28;20041;-62
2022/06/11 08:16:20;;;;;;;15.13;13.63;;;;;;;;;;10275720;28;20085;-63
2022/06/11 08:21:19;;;;;;;15.93;14.63;;;;;;;;;;10273350;28;20127;-63
2022/06/11 08:26:17;;;;;;;22.02;20.05;;;;;;;;;;10275523;28;20049;-62
2022/06/11 08:31:15;;;;;;;16.75;15.02;;;;;;;;;;10274959;28;20057;-62
2022/06/11 08:36:15;;;;;;;16.13;14.52;;;;;;;;;;10305883;28;20091;-62
2022/06/11 08:41:15;;;;;;;17.98;16.38;;;;;;;;;;10314660;28;20071;-63
2022/06/11 08:46:19;;;;;;;21.33;18.85;;;;;;;;;;10315735;28;20048;-63
2022/06/11 08:51:21;;;;;;;18.92;17.23;;;;;;;;;;10315727;28;20170;-62
2022/06/11 08:56:24;;;;;;;17.10;15.27;;;;;;;;;;10285027;28;20079;-63
2022/06/11 09:01:26;;;;;;;19.25;17.23;;;;;;;;;;10296442;28;20053;-62
2022/06/11 09:06:34;;;;;;;18.65;16.98;;;;;;;;;;10274854;28;20076;-62
2022/06/11 09:11:37;;;;;;;17.27;15.77;;;;;;;;;;10311736;28;20087;-62
2022/06/11 09:16:50;;;;;;;17.43;15.67;;;;;;;;;;10311860;28;20451;-62
2022/06/11 09:21:56;;;;;;;16.80;15.27;;;;;;;;;;10294115;28;20060;-62
2022/06/11 09:26:59;;;;;;;18.90;17.20;;;;;;;;;;10281303;28;20041;-62
2022/06/11 09:32:00;;;;;;;19.55;17.55;;;;;;;;;;10281118;28;20175;-61
2022/06/11 09:37:06;;;;;;;16.20;14.80;;;;;;;;;;10280929;28;20477;-61
2022/06/11 09:42:22;;;;;;;18.77;15.90;;;;;;;;;;10280741;28;20048;-61
2022/06/11 09:47:24;;;;;;;16.92;15.38;;;;;;;;;;10278459;28;20087;-63
2022/06/11 09:52:27;;;;;;;18.55;16.73;;;;;;;;;;10280783;28;20064;-63
2022/06/11 09:57:36;;;;;;;17.15;15.55;;;;;;;;;;10280145;28;20080;-60
2022/06/11 10:02:39;;;;;;;16.10;14.40;;;;;;;;;;10279432;28;20056;-61
2022/06/11 10:07:42;;;;;;;15.05;13.75;;;;;;;;;;10280613;28;20045;-62
2022/06/11 10:12:41;;;;;;;30.90;27.70;;;;;;;;;;10279531;28;20076;-62
2022/06/11 10:17:50;;;;;;;21.95;19.92;;;;;;;;;;10279360;28;20091;-62
2022/06/11 10:22:53;;;;;;;20.80;19.02;;;;;;;;;;10277733;28;20053;-61
2022/06/11 10:27:55;;;;;;;18.63;16.70;;;;;;;;;;10278335;28;20045;-61
2022/06/11 10:32:55;;;;;;;19.35;17.27;;;;;;;;;;10278768;28;20072;-61
2022/06/11 10:37:58;;;;;;;17.70;16.20;;;;;;;;;;10278653;28;20081;-62
2022/06/11 10:43:00;;;;;;;19.17;17.45;;;;;;;;;;10278545;28;20049;-61
2022/06/11 10:48:00;;;;;;;18.05;15.88;;;;;;;;;;10278357;28;20474;-62
2022/06/11 10:53:03;;;;;;;20.60;17.85;;;;;;;;;;10278307;28;20044;-61
2022/06/11 10:58:04;;;;;;;18.77;16.88;;;;;;;;;;10277881;28;20076;-63
2022/06/11 11:03:05;;;;;;;18.98;17.05;;;;;;;;;;10278076;28;20053;-62
2022/06/11 11:08:06;;;;;;;17.55;16.05;;;;;;;;;;10277447;28;20037;-63
2022/06/11 11:13:06;;;;;;;18.00;16.33;;;;;;;;;;10277255;28;20056;-63
2022/06/11 11:18:10;;;;;;;17.05;15.40;;;;;;;;;;10277183;28;20087;-61
2022/06/11 11:23:15;;;;;;;19.20;17.60;;;;;;;;;;10276444;28;20091;-63
2022/06/11 11:28:20;;;;;;;17.85;16.23;;;;;;;;;;10275991;28;20525;-63
2022/06/11 11:33:24;;;;;;;18.50;16.70;;;;;;;;;;10275104;28;20072;-63
2022/06/11 11:38:25;;;;;;;19.70;17.75;;;;;;;;;;10276724;28;20099;-62
2022/06/11 11:43:25;;;;;;;19.63;17.60;;;;;;;;;;10276514;28;20494;-61
2022/06/11 11:48:27;;;;;;;19.60;16.98;;;;;;;;;;10276891;28;20517;-63
2022/06/11 11:53:29;;;;;;;18.45;16.73;;;;;;;;;;10274624;28;20446;-62
2022/06/11 11:58:30;;;;;;;16.60;14.85;;;;;;;;;;10276182;28;20083;-62
2022/06/11 12:03:31;;;;;;;16.45;15.00;;;;;;;;;;10275198;28;20092;-63
2022/06/11 12:08:32;;;;;;;15.93;14.65;;;;;;;;;;10277102;28;20481;-62
2022/06/11 12:13:32;;;;;;;14.98;13.68;;;;;;;;;;10297002;28;20502;-63
2022/06/11 12:18:33;;;;;;;15.23;13.93;;;;;;;;;;10291323;28;20079;-62
2022/06/11 12:23:36;;;;;;;13.57;12.38;;;;;;;;;;10315850;28;20071;-62
2022/06/11 12:28:36;;;;;;;14.13;12.88;;;;;;;;;;10316404;28;20508;-62
2022/06/11 12:33:43;;;;;;;16.30;13.02;;;;;;;;;;10315129;28;20084;-62
2022/06/11 12:38:47;;;;;;;13.85;12.73;;;;;;;;;;10316004;28;20080;-62
2022/06/11 12:43:49;;;;;;;18.27;16.60;;;;;;;;;;10315862;28;20485;-61
2022/06/11 12:48:50;;;;;;;19.48;17.63;;;;;;;;;;10323428;28;20045;-60
2022/06/11 12:53:54;;;;;;;20.42;18.27;;;;;;;;;;10323809;28;20082;-62
2022/06/11 12:59:02;;;;;;;19.95;17.52;;;;;;;;;;10323175;28;20107;-61
2022/06/11 13:04:18;;;;;;;19.23;17.27;;;;;;;;;;10323280;28;20044;-62
2022/06/11 13:09:31;;;;;;;19.20;17.02;;;;;;;;;;10322862;28;20084;-62
2022/06/11 13:14:51;;;;;;;19.60;17.60;;;;;;;;;;10321903;28;20056;-62
2022/06/11 13:19:51;;;;;;;17.67;15.90;;;;;;;;;;10317173;28;20092;-62
2022/06/11 13:24:57;;;;;;;14.85;13.55;;;;;;;;;;10321452;28;20049;-62
2022/06/11 13:30:01;;;;;;;15.35;13.85;;;;;;;;;;10321248;28;20049;-62
2022/06/11 13:35:08;;;;;;;16.42;14.25;;;;;;;;;;10320876;28;20091;-62
2022/06/11 13:40:20;;;;;;;17.63;13.57;;;;;;;;;;10320870;28;20465;-62
2022/06/11 13:45:32;;;;;;;21.20;14.95;;;;;;;;;;10320971;28;20052;-60
2022/06/11 13:50:35;;;;;;;18.38;15.27;;;;;;;;;;10320758;28;20044;-61
2022/06/11 13:55:37;;;;;;;15.63;12.80;;;;;;;;;;10320250;28;20044;-63
2022/06/11 14:00:41;;;;;;;14.50;12.95;;;;;;;;;;10319604;28;20540;-62
2022/06/11 14:05:40;;;;;;;17.88;14.55;;;;;;;;;;10320065;28;20404;-62
2022/06/11 14:10:41;;;;;;;25.00;15.50;;;;;;;;;;10320396;28;20358;-62
2022/06/11 14:15:41;;;;;;;15.30;13.27;;;;;;;;;;10319692;28;20099;-62
2022/06/11 14:20:48;;;;;;;14.88;13.35;;;;;;;;;;10319455;28;20114;-62
2022/06/11 14:25:48;;;;;;;12.90;11.48;;;;;;;;;;10319619;28;20072;-62
2022/06/11 14:31:01;;;;;;;11.30;9.45;;;;;;;;;;10319436;28;20083;-62
2022/06/11 14:36:04;;;;;;;11.55;9.38;;;;;;;;;;10318959;28;20052;-61
2022/06/11 14:41:22;;;;;;;21.58;11.75;;;;;;;;;;10317828;28;20485;-61
2022/06/11 14:46:36;;;;;;;32.78;20.42;;;;;;;;;;10318409;28;20056;-62
2022/06/11 14:51:35;;;;;;;26.07;13.20;;;;;;;;;;10318278;28;20078;-62
2022/06/11 14:56:49;;;;;;;30.25;19.90;;;;;;;;;;10317991;28;20490;-62
2022/06/11 15:02:15;;;;;;;17.23;12.70;;;;;;;;;;10317062;28;20088;-59
2022/06/11 15:07:24;;;;;;;12.93;9.43;;;;;;;;;;10282627;28;20357;-62
2022/06/11 15:12:33;;;;;;;9.95;9.05;;;;;;;;;;10317605;28;20069;-63
2022/06/11 15:17:36;;;;;;;11.43;10.48;;;;;;;;;;10317674;28;20052;-63
2022/06/11 15:22:44;;;;;;;10.77;9.73;;;;;;;;;;10316585;28;20080;-62
2022/06/11 15:27:56;;;;;;;9.77;8.98;;;;;;;;;;10317575;28;20040;-62
2022/06/11 15:32:56;;;;;;;10.25;9.35;;;;;;;;;;10317071;28;20036;-63
2022/06/11 15:37:57;;;;;;;11.32;10.32;;;;;;;;;;10317340;28;20064;-63
2022/06/11 15:42:57;;;;;;;12.48;10.45;;;;;;;;;;10317191;28;20459;-63
2022/06/11 15:47:57;;;;;;;10.93;10.00;;;;;;;;;;10317098;28;20043;-63
2022/06/11 15:53:00;;;;;;;11.20;10.20;;;;;;;;;;10317097;28;20091;-63
2022/06/11 15:58:00;;;;;;;11.45;9.77;;;;;;;;;;10316850;28;20071;-63
2022/06/11 16:03:11;;;;;;;10.55;9.55;;;;;;;;;;10316191;28;20490;-63
2022/06/11 16:08:15;;;;;;;14.18;12.73;;;;;;;;;;10316746;28;20509;-63
2022/06/11 16:13:16;;;;;;;12.48;8.43;;;;;;;;;;10316514;28;20041;-63
2022/06/11 16:18:26;;;;;;;7.82;7.10;;;;;;;;;;10316592;28;20457;-64
2022/06/11 16:23:26;;;;;;;7.88;6.57;;;;;;;;;;10321313;28;20086;-63
2022/06/11 16:28:27;;;;;;;7.35;6.70;;;;;;;;;;10321931;28;20105;-62
2022/06/11 16:33:28;;;;;;;7.70;6.90;;;;;;;;;;10323063;28;20076;-63
2022/06/11 16:38:38;;;;;;;7.82;6.60;;;;;;;;;;10324229;28;20379;-62
2022/06/11 16:43:38;;;;;;;7.15;6.43;;;;;;;;;;10323761;28;20041;-63
2022/06/11 16:48:39;;;;;;;12.43;7.57;;;;;;;;;;10324027;28;20048;-62
2022/06/11 16:59:07;;;;;;;8.43;7.63;;;;;;;;;;10321798;28;20059;-62
2022/06/11 17:04:23;;;;;;;11.73;8.18;;;;;;;;;;10322628;28;20044;-62
2022/06/11 17:09:26;;;;;;;9.50;8.50;;;;;;;;;;10322197;28;20048;-62
2022/06/11 17:14:26;;;;;;;13.15;9.13;;;;;;;;;;10321922;28;20040;-62
2022/06/11 17:19:26;;;;;;;17.42;10.95;;;;;;;;;;10322181;28;20099;-62
2022/06/11 17:24:26;;;;;;;12.82;10.27;;;;;;;;;;10321966;28;20406;-63
2022/06/11 17:29:26;;;;;;;15.98;11.70;;;;;;;;;;10321336;28;20533;-62
2022/06/11 17:34:25;;;;;;;16.10;11.23;;;;;;;;;;10321760;28;20096;-63
2022/06/11 17:39:25;;;;;;;13.70;11.27;;;;;;;;;;10320867;28;20477;-61
2022/06/11 17:44:25;;;;;;;14.18;12.77;;;;;;;;;;10320808;28;20415;-62
2022/06/11 17:49:25;;;;;;;13.90;10.65;;;;;;;;;;10321051;28;20059;-63
2022/06/11 17:54:25;;;;;;;10.40;9.40;;;;;;;;;;10320313;28;20041;-63
2022/06/11 17:59:24;;;;;;;9.65;8.30;;;;;;;;;;10319873;28;20068;-63
2022/06/11 18:04:27;;;;;;;10.85;9.00;;;;;;;;;;10319778;28;20055;-62
2022/06/11 18:09:26;;;;;;;12.20;8.60;;;;;;;;;;10319751;28;20052;-63
2022/06/11 18:14:24;;;;;;;10.00;7.70;;;;;;;;;;10315787;28;20457;-62
2022/06/11 18:19:23;;;;;;;10.20;7.28;;;;;;;;;;10288429;28;20434;-63
2022/06/11 18:29:39;;;;;;;9.90;6.97;;;;;;;;;;10278987;28;20305;-63
2022/06/11 18:34:39;;;;;;;9.55;7.28;;;;;;;;;;10278108;28;20529;-63
2022/06/11 18:39:39;;;;;;;9.88;7.38;;;;;;;;;;10278032;28;20064;-62
2022/06/11 18:44:38;;;;;;;8.30;7.50;;;;;;;;;;10277510;28;20052;-63
2022/06/11 18:49:36;;;;;;;9.63;7.88;;;;;;;;;;10277563;28;20091;-63
2022/06/11 18:54:34;;;;;;;9.40;8.15;;;;;;;;;;10277212;28;20048;-63
2022/06/11 18:59:35;;;;;;;12.68;9.15;;;;;;;;;;10277233;28;20513;-62
2022/06/11 19:04:34;;;;;;;10.32;9.25;;;;;;;;;;10276881;28;20041;-63
2022/06/11 19:09:32;;;;;;;9.70;8.85;;;;;;;;;;10276822;28;20699;-63
2022/06/11 19:14:31;;;;;;;15.20;9.20;;;;;;;;;;10276517;28;20045;-62
2022/06/11 19:19:32;;;;;;;16.42;10.98;;;;;;;;;;10276414;28;20210;-63
2022/06/11 19:24:31;;;;;;;10.75;8.98;;;;;;;;;;10276087;28;20081;-62
2022/06/11 19:29:29;;;;;;;12.60;10.23;;;;;;;;;;10275866;28;20052;-62
2022/06/11 19:34:27;;;;;;;13.48;9.32;;;;;;;;;;10275809;28;20418;-62
2022/06/11 19:39:29;;;;;;;11.55;10.35;;;;;;;;;;10275710;28;20048;-62
2022/06/11 19:44:30;;;;;;;14.48;10.35;;;;;;;;;;10275821;28;20072;-62
2022/06/11 19:49:29;;;;;;;10.93;9.73;;;;;;;;;;10275815;28;20052;-62
2022/06/11 19:54:29;;;;;;;15.18;10.50;;;;;;;;;;10274469;28;20049;-62
2022/06/11 19:59:30;;;;;;;11.98;9.80;;;;;;;;;;10275707;28;20053;-62
2022/06/11 20:04:31;;;;;;;;;;;;;;;;;;10275703;28;20079;-63
2022/06/11 20:09:31;;;;;;;13.82;10.30;;;;;;;;;;10275904;28;20382;-63
2022/06/11 20:14:30;;;;;;;14.95;10.38;;;;;;;;;;10274974;28;20422;-62
2022/06/11 20:19:29;;;;;;;11.13;10.07;;;;;;;;;;10274981;28;20045;-63
2022/06/11 20:24:27;;;;;;;16.58;10.88;;;;;;;;;;10274888;28;20080;-63
2022/06/11 20:29:27;;;;;;;14.20;11.15;;;;;;;;;;10274203;28;20037;-63
2022/06/11 20:34:26;;;;;;;11.43;10.05;;;;;;;;;;10281301;28;20080;-62
2022/06/11 20:39:24;;;;;;;11.80;10.55;;;;;;;;;;10300593;28;20045;-62
2022/06/11 20:44:23;;;;;;;15.80;13.55;;;;;;;;;;10298092;28;20081;-63
2022/06/11 20:54:38;;;;;;;12.50;11.30;;;;;;;;;;10293071;28;20065;-62
2022/06/11 20:59:37;;;;;;;13.73;11.10;;;;;;;;;;10290899;28;20064;-63
2022/06/11 21:04:36;;;;;;;12.27;11.05;;;;;;;;;;10292498;28;20095;-61
2022/06/11 21:09:35;;;;;;;14.73;11.20;;;;;;;;;;10301998;28;20073;-62
2022/06/11 21:14:34;;;;;;;17.25;12.23;;;;;;;;;;10293032;28;20048;-63
2022/06/11 21:19:33;;;;;;;12.57;10.80;;;;;;;;;;10298133;28;20453;-63
2022/06/11 21:24:36;;;;;;;16.10;10.88;;;;;;;;;;10297278;28;20083;-62
2022/06/11 21:29:34;;;;;;;13.07;10.88;;;;;;;;;;10299500;28;20087;-62
2022/06/11 21:34:33;;;;;;;11.45;10.10;;;;;;;;;;10317715;28;20430;-63
2022/06/11 21:39:32;;;;;;;12.10;10.55;;;;;;;;;;10280530;28;20053;-63
2022/06/11 21:44:32;;;;;;;12.10;10.43;;;;;;;;;;10280612;28;20080;-63
2022/06/11 21:49:30;;;;;;;16.70;9.95;;;;;;;;;;10289484;28;20122;-63
2022/06/11 21:54:30;;;;;;;14.73;10.80;;;;;;;;;;10282703;28;20048;-63
2022/06/11 21:59:32;;;;;;;17.50;10.77;;;;;;;;;;10307722;28;20047;-63
2022/06/11 22:04:30;;;;;;;12.68;9.63;;;;;;;;;;10279546;28;20076;-62
2022/06/11 22:09:29;;;;;;;16.08;9.63;;;;;;;;;;10315563;28;20052;-63
2022/06/11 22:14:29;;;;;;;19.48;10.32;;;;;;;;;;10320177;28;20063;-63
2022/06/11 22:19:28;;;;;;;13.77;9.70;;;;;;;;;;10318631;28;20064;-62
2022/06/11 22:24:29;;;;;;;13.48;10.25;;;;;;;;;;10319030;28;20087;-63
2022/06/11 22:29:27;;;;;;;13.25;10.30;;;;;;;;;;10296223;28;20045;-62
2022/06/11 22:34:26;;;;;;;12.23;9.98;;;;;;;;;;10293717;28;20045;-62
2022/06/11 22:39:26;;;;;;;17.90;10.80;;;;;;;;;;10319170;28;20057;-62
2022/06/11 22:44:24;;;;;;;14.48;10.85;;;;;;;;;;10298464;28;20289;-63
2022/06/11 22:49:23;;;;;;;14.77;10.55;;;;;;;;;;10290324;28;20077;-63
2022/06/11 22:54:22;;;;;;;17.50;11.35;;;;;;;;;;10288072;28;20076;-62
2022/06/11 22:59:22;;;;;;;12.38;11.20;;;;;;;;;;10306629;28;20052;-63
2022/06/11 23:04:20;;;;;;;17.52;11.32;;;;;;;;;;10290627;28;20155;-62
2022/06/11 23:09:19;;;;;;;14.02;11.07;;;;;;;;;;10304577;28;20040;-63
2022/06/11 23:14:18;;;;;;;13.98;11.10;;;;;;;;;;10318279;28;20094;-63
2022/06/11 23:19:17;;;;;;;17.05;11.38;;;;;;;;;;10316998;28;20513;-63
2022/06/11 23:24:16;;;;;;;12.98;11.75;;;;;;;;;;10307640;28;20084;-63
2022/06/11 23:29:14;;;;;;;13.05;11.40;;;;;;;;;;10276436;28;20524;-63
2022/06/11 23:34:13;;;;;;;14.50;13.00;;;;;;;;;;10276418;28;20556;-63
2022/06/11 23:39:14;;;;;;;16.10;10.82;;;;;;;;;;10276012;28;20037;-63
2022/06/11 23:44:13;;;;;;;12.65;10.75;;;;;;;;;;10304627;28;20083;-63
2022/06/11 23:49:13;;;;;;;14.40;10.85;;;;;;;;;;10285442;28;20037;-63
2022/06/11 23:54:12;;;;;;;10.98;9.88;;;;;;;;;;10272195;28;20084;-63
2022/06/11 23:59:12;;;;;;;10.52;9.20;;;;;;;;;;10308742;28;20049;-63
